Time;durP1;ratioP1;P1;durP2;ratioP2;P2;SDS_P1;SDS_P2;PMS_P1;PMS_P2;Temp;Humidity;BMP_temperature;BMP_pressure;BME280_temperature;BME280_humidity;BME280_pressure;Samples;Min_cycle;Max_cycle;Signal;HPM_P1;HPM_P2
2022/03/07 00:00:21;;;;;;;4.10;3.70;;;2.20;1.00;2.50;101372.00;;;;5004454;28;20477;-74
2022/03/07 00:02:49;;;;;;;4.30;3.90;;;2.10;1.00;2.50;101373.00;;;;5022072;28;20473;-75
2022/03/07 00:05:19;;;;;;;4.70;4.30;;;2.10;1.00;52.70;157678.00;;;;5015769;28;20474;-75
2022/03/07 00:07:48;;;;;;;4.40;4.00;;;1.90;1.00;2.30;101323.00;;;;5004421;28;20489;-76
2022/03/07 00:10:16;;;;;;;5.23;4.30;;;1.90;1.00;2.20;101370.00;;;;5015155;28;20573;-76
2022/03/07 00:12:45;;;;;;;4.47;4.07;;;1.80;1.00;2.20;101363.00;;;;5012613;28;20450;-77
2022/03/07 00:15:15;;;;;;;4.00;3.60;;;2.10;1.00;2.10;101355.00;;;;5015222;28;20467;-77
2022/03/07 00:17:44;;;;;;;4.70;4.30;;;1.60;1.00;2.10;101317.00;;;;5026362;28;20531;-78
2022/03/07 00:20:14;;;;;;;5.00;4.37;;;1.60;1.00;2.10;101358.00;;;;5002240;28;20494;-80
2022/03/07 00:22:43;;;;;;;4.93;4.43;;;1.60;1.00;2.10;101359.00;;;;5006344;28;20484;-77
2022/03/07 00:25:11;;;;;;;4.23;3.83;;;1.60;1.00;1.90;101336.00;;;;5020944;28;20483;-77
2022/03/07 00:27:40;;;;;;;5.40;4.20;;;1.50;1.00;2.10;101364.00;;;;5019106;28;20458;-77
2022/03/07 00:30:09;;;;;;;4.90;4.40;;;1.50;1.00;2.00;101345.00;;;;5002905;28;20464;-76
2022/03/07 00:32:37;;;;;;;4.90;4.20;;;1.50;1.00;2.00;101367.00;;;;5019809;28;20485;-77
2022/03/07 00:35:09;;;;;;;5.20;4.70;;;1.50;1.00;1.90;101368.00;;;;5012310;28;20749;-77
2022/03/07 00:37:37;;;;;;;6.03;3.43;;;1.50;1.00;1.70;101360.00;;;;5032499;28;20530;-77
2022/03/07 00:40:10;;;;;;;5.33;4.83;;;1.70;1.00;1.80;101366.00;;;;5023471;28;20438;-77
2022/03/07 00:42:39;;;;;;;6.33;5.07;;;1.30;1.00;1.80;101379.00;;;;5032494;28;20451;-76
2022/03/07 00:45:10;;;;;;;7.03;5.20;;;1.30;1.00;1.80;101374.00;;;;5017065;28;20469;-76
2022/03/07 00:47:39;;;;;;;5.77;5.17;;;1.30;1.00;1.80;101379.00;;;;5035788;28;20461;-77
2022/03/07 00:50:10;;;;;;;6.13;4.50;;;1.30;1.00;1.80;101369.00;;;;5019145;28;20459;-78
2022/03/07 00:52:38;;;;;;;5.17;4.53;;;1.30;1.00;1.90;101379.00;;;;5024431;28;20455;-77
2022/03/07 00:55:09;;;;;;;7.10;5.93;;;1.40;1.00;1.90;101376.00;;;;5021137;28;20471;-78
2022/03/07 00:57:38;;;;;;;5.53;5.03;;;1.40;1.00;2.00;101381.00;;;;5021229;28;20454;-78
2022/03/07 01:00:08;;;;;;;5.50;5.00;;;1.50;1.00;2.10;66723.00;;;;5027724;28;20465;-78
2022/03/07 01:02:38;;;;;;;5.37;4.87;;;1.60;1.00;2.10;101364.00;;;;5015280;28;20451;-77
2022/03/07 01:05:09;;;;;;;5.43;4.93;;;1.70;1.00;2.10;101390.00;;;;5019261;28;20470;-78
2022/03/07 01:07:39;;;;;;;6.37;5.47;;;1.70;1.00;2.10;101381.00;;;;5029556;28;20470;-78
2022/03/07 01:10:08;;;;;;;5.73;5.20;;;1.50;1.00;2.00;101374.00;;;;5019322;28;20459;-76
2022/03/07 01:12:36;;;;;;;6.20;5.47;;;1.60;1.00;2.20;101382.00;;;;5013573;28;20461;-77
2022/03/07 01:15:07;;;;;;;7.27;6.00;;;1.60;1.00;217.30;157583.00;;;;5020756;28;20594;-77
2022/03/07 01:17:36;;;;;;;5.40;4.90;;;1.70;1.00;2.00;101347.00;;;;5015366;28;20470;-78
2022/03/07 01:20:08;;;;;;;7.17;5.80;;;1.60;1.00;2.10;101373.00;;;;5015827;28;20485;-77
2022/03/07 01:22:37;;;;;;;7.17;5.67;;;1.60;1.00;2.10;101367.00;;;;5021524;28;20533;-75
2022/03/07 01:25:07;;;;;;;7.30;6.60;;;1.70;1.00;2.10;101363.00;;;;5016804;28;20466;-75
2022/03/07 01:27:35;;;;;;;6.73;6.03;;;1.60;1.00;2.10;101363.00;;;;5005376;28;20481;-76
2022/03/07 01:30:06;;;;;;;6.87;6.17;;;1.70;1.00;2.20;101358.00;;;;4993471;28;20450;-76
2022/03/07 01:32:35;;;;;;;7.93;6.77;;;1.70;1.00;2.20;101365.00;;;;4999978;28;20557;-77
2022/03/07 01:35:04;;;;;;;7.90;6.73;;;1.70;1.00;2.10;101372.00;;;;5012475;28;20477;-77
2022/03/07 01:37:35;;;;;;;9.80;7.70;;;1.60;1.00;2.10;101364.00;;;;4999651;28;20508;-77
2022/03/07 01:40:06;;;;;;;8.50;7.30;;;1.60;1.00;2.20;101362.00;;;;5014531;28;20513;-77
2022/03/07 01:42:35;;;;;;;8.10;7.30;;;1.60;1.00;2.00;101345.00;;;;5014922;28;20477;-77
2022/03/07 01:45:09;;;;;;;9.33;7.63;;;1.60;1.00;2.10;101362.00;;;;5014576;28;20564;-77
2022/03/07 01:47:38;;;;;;;8.07;7.27;;;1.70;1.00;2.00;101356.00;;;;4997667;28;20455;-78
2022/03/07 01:50:09;;;;;;;9.07;7.60;;;1.50;1.00;1.90;101347.00;;;;4997214;28;20465;-76
2022/03/07 01:52:47;;;;;;;9.23;8.33;;;1.40;1.00;1.90;101352.00;;;;4989911;28;20826;-77
2022/03/07 01:55:17;;;;;;;9.90;8.30;;;1.80;1.00;1.80;101335.00;;;;4995922;28;20466;-77
2022/03/07 01:57:50;;;;;;;8.37;7.57;;;1.40;1.00;1.90;101347.00;;;;5013338;28;21304;-78
2022/03/07 02:00:22;;;;;;;9.40;8.40;;;1.40;1.00;1.80;101355.00;;;;4996831;28;20445;-78
2022/03/07 02:02:51;;;;;;;9.90;8.40;;;1.50;1.00;1.70;101363.00;;;;5001928;28;20459;-79
2022/03/07 02:05:28;;;;;;;10.10;9.10;;;1.80;1.00;1.80;101351.00;;;;5014231;28;20481;-79
2022/03/07 02:08:06;;;;;;;10.80;9.50;;;1.30;1.00;1.80;101356.00;;;;4996058;28;20478;-78
2022/03/07 02:10:43;;;;;;;10.30;8.97;;;1.40;1.00;1.80;101343.00;;;;5004982;28;20449;-79
2022/03/07 02:13:16;;;;;;;10.17;9.17;;;1.40;1.00;1.80;101356.00;;;;5013944;28;20872;-79
2022/03/07 02:15:54;;;;;;;10.67;9.57;;;1.30;1.00;1.80;101361.00;;;;5014300;28;20532;-79
2022/03/07 02:18:25;;;;;;;12.17;9.67;;;1.70;1.00;1.90;101367.00;;;;5031517;28;20470;-78
2022/03/07 02:21:01;;;;;;;11.63;10.40;;;1.30;1.00;2.00;101341.00;;;;5014034;28;20545;-78
2022/03/07 02:23:32;;;;;;;14.00;10.63;;;1.50;1.00;1.80;101348.00;;;;5023350;28;20457;-79
2022/03/07 02:26:00;;;;;;;13.40;10.60;;;1.30;1.00;1.80;101355.00;;;;4996780;28;20909;-78
2022/03/07 02:28:29;;;;;;;12.20;10.90;;;1.30;1.00;1.70;101328.00;;;;5003168;28;20475;-78
2022/03/07 02:30:57;;;;;;;11.00;9.90;;;1.20;1.00;1.70;101343.00;;;;5015257;28;20972;-79
2022/03/07 02:33:26;;;;;;;12.17;10.87;;;1.20;1.00;1.80;101361.00;;;;4997462;28;20457;-78
2022/03/07 02:35:56;;;;;;;12.80;11.00;;;1.30;1.00;1.80;101358.00;;;;4997407;28;20560;-79
2022/03/07 02:38:24;;;;;;;13.40;11.90;;;1.30;1.00;1.70;101350.00;;;;4989329;28;20557;-78
2022/03/07 02:40:54;;;;;;;13.40;11.00;;;1.30;1.00;1.60;101352.00;;;;5010666;28;20454;-78
2022/03/07 02:43:24;;;;;;;12.13;10.80;;;1.20;1.00;1.60;101310.00;;;;4997028;28;20454;-78
2022/03/07 02:45:52;;;;;;;13.90;11.70;;;1.20;1.00;1.60;101358.00;;;;4996667;28;20473;-78
2022/03/07 02:48:21;;;;;;;12.60;11.07;;;1.20;1.00;1.70;101340.00;;;;4995962;28;20458;-78
2022/03/07 02:50:49;;;;;;;14.77;12.00;;;1.10;1.00;1.50;101343.00;;;;5009915;28;20466;-79
2022/03/07 02:53:17;;;;;;;13.30;11.67;;;1.10;1.00;1.40;101298.00;;;;4994350;28;20457;-79
2022/03/07 02:55:46;;;;;;;15.37;13.37;;;1.00;1.00;1.30;101324.00;;;;5004092;28;20480;-79
2022/03/07 02:58:15;;;;;;;13.50;12.10;;;0.80;1.00;1.20;101334.00;;;;4999220;28;20442;-79
2022/03/07 03:00:44;;;;;;;14.60;12.17;;;1.10;1.00;1.20;101307.00;;;;4987921;28;20453;-78
2022/03/07 03:03:12;;;;;;;16.73;13.00;;;0.70;1.00;1.10;101362.00;;;;4998136;28;20627;-78
2022/03/07 03:05:41;;;;;;;15.43;13.20;;;0.60;1.00;1.10;101348.00;;;;4994428;28;20568;-78
2022/03/07 03:08:09;;;;;;;14.77;13.13;;;0.60;1.00;1.10;101346.00;;;;5000710;28;20453;-78
2022/03/07 03:10:37;;;;;;;15.40;13.13;;;0.60;1.00;1.20;66503.00;;;;5000846;28;20498;-79
2022/03/07 03:13:06;;;;;;;14.63;13.13;;;0.60;1.00;1.10;101352.00;;;;4998573;28;20449;-79
2022/03/07 03:15:38;;;;;;;14.37;12.23;;;0.60;1.00;1.10;101330.00;;;;5013680;28;20576;-79
2022/03/07 03:18:06;;;;;;;14.57;12.90;;;0.60;1.00;1.00;101314.00;;;;4997558;28;20461;-78
2022/03/07 03:20:35;;;;;;;15.40;13.10;;;0.50;1.00;1.00;101358.00;;;;5005595;28;20513;-78
2022/03/07 03:23:03;;;;;;;17.83;15.40;;;0.50;1.00;1.10;66490.00;;;;5002348;28;20466;-78
2022/03/07 03:25:32;;;;;;;17.33;13.60;;;0.50;1.00;1.00;101363.00;;;;5002577;28;20474;-78
2022/03/07 03:28:00;;;;;;;16.33;14.10;;;0.50;1.00;1.00;66450.00;;;;5014438;28;20821;-78
2022/03/07 03:30:29;;;;;;;17.03;14.77;;;0.50;1.00;1.00;101343.00;;;;5003889;28;20459;-78
2022/03/07 03:32:59;;;;;;;17.87;14.63;;;0.40;1.00;1.00;101345.00;;;;5018336;28;20509;-78
2022/03/07 03:35:28;;;;;;;18.30;14.67;;;0.50;1.00;1.00;101311.00;;;;5021347;28;20471;-79
2022/03/07 03:37:58;;;;;;;16.17;14.00;;;0.50;1.00;1.00;101363.00;;;;5021778;28;20504;-78
2022/03/07 03:40:27;;;;;;;16.90;14.03;;;0.40;1.00;0.90;101360.00;;;;5023202;28;20529;-78
2022/03/07 03:42:55;;;;;;;17.13;14.73;;;0.40;1.00;0.90;101355.00;;;;5024030;28;20446;-78
2022/03/07 03:45:24;;;;;;;16.67;14.00;;;0.40;1.00;0.90;101356.00;;;;5010355;28;20473;-78
2022/03/07 03:47:52;;;;;;;16.20;14.50;;;0.40;1.00;0.80;66434.00;;;;5010320;28;20458;-78
2022/03/07 03:50:22;;;;;;;17.20;14.60;;;0.40;1.00;0.90;101360.00;;;;5004746;28;20462;-78
2022/03/07 03:52:50;;;;;;;16.37;14.67;;;0.40;1.00;0.90;101352.00;;;;5000754;28;20454;-78
2022/03/07 03:55:19;;;;;;;16.33;13.90;;;0.40;1.00;0.80;101346.00;;;;5006667;28;20474;-78
2022/03/07 03:57:47;;;;;;;19.17;15.10;;;0.40;1.00;0.90;101363.00;;;;4990206;28;20453;-77
2022/03/07 04:00:18;;;;;;;16.53;14.83;;;0.40;1.00;1.00;101368.00;;;;5006259;28;20476;-77
2022/03/07 04:02:47;;;;;;;20.40;15.60;;;0.50;1.00;1.10;101363.00;;;;5013199;28;20454;-76
2022/03/07 04:05:16;;;;;;;16.90;14.33;;;0.60;1.00;1.30;101357.00;;;;5011592;28;20469;-76
2022/03/07 04:07:46;;;;;;;16.70;13.90;;;0.80;1.00;1.40;101365.00;;;;4997934;28;20449;-77
2022/03/07 04:10:15;;;;;;;17.60;15.43;;;1.20;1.00;1.40;101373.00;;;;4998770;28;21471;-77
2022/03/07 04:12:43;;;;;;;16.60;14.00;;;1.00;1.00;1.50;101366.00;;;;4998599;28;20458;-78
2022/03/07 04:15:13;;;;;;;16.37;13.70;;;1.20;1.00;1.60;101386.00;;;;4996926;28;20485;-77
2022/03/07 04:17:42;;;;;;;15.40;13.30;;;1.00;1.00;1.70;101371.00;;;;4998819;28;20453;-78
2022/03/07 04:20:13;;;;;;;16.60;13.77;;;1.20;1.00;1.80;101372.00;;;;5013911;28;20486;-79
2022/03/07 04:22:42;;;;;;;16.17;14.50;;;1.30;1.00;1.80;101373.00;;;;5013682;28;20454;-77
2022/03/07 04:25:12;;;;;;;16.50;13.77;;;1.40;1.00;1.90;101376.00;;;;4997498;28;20477;-79
2022/03/07 04:27:41;;;;;;;15.83;14.03;;;1.50;1.00;1.90;101374.00;;;;4998910;28;20446;-78
2022/03/07 04:30:10;;;;;;;16.33;14.63;;;1.50;1.00;2.00;101378.00;;;;4996205;28;20488;-79
2022/03/07 04:32:38;;;;;;;17.17;14.37;;;1.50;1.00;2.10;101373.00;;;;4999260;28;20462;-78
2022/03/07 04:35:09;;;;;;;15.50;13.90;;;1.60;1.00;2.10;101370.00;;;;4996383;28;20485;-79
2022/03/07 04:37:40;;;;;;;16.10;14.40;;;1.70;1.00;2.20;101375.00;;;;4996427;28;20463;-77
2022/03/07 04:40:12;;;;;;;16.50;14.80;;;2.10;1.00;2.20;101394.00;;;;4999852;28;21036;-76
2022/03/07 04:42:41;;;;;;;15.87;14.27;;;1.80;1.00;2.30;101399.00;;;;5012025;28;20501;-76
2022/03/07 04:45:11;;;;;;;15.77;14.27;;;1.80;1.00;2.30;101363.00;;;;5006882;28;20532;-76
2022/03/07 04:47:39;;;;;;;15.63;14.03;;;1.90;1.00;2.20;101384.00;;;;4999580;28;20868;-77
2022/03/07 04:50:10;;;;;;;15.70;14.20;;;1.80;1.00;2.30;101378.00;;;;4997434;28;20486;-76
2022/03/07 04:52:38;;;;;;;15.97;14.47;;;1.80;1.00;2.30;101382.00;;;;4997961;28;21057;-77
2022/03/07 04:55:09;;;;;;;15.20;13.70;;;1.90;1.00;2.30;101375.00;;;;5014285;28;20484;-76
2022/03/07 04:57:39;;;;;;;16.33;13.80;;;1.90;1.00;2.30;101365.00;;;;4995388;28;20461;-76
2022/03/07 05:00:11;;;;;;;16.07;14.37;;;1.80;1.00;2.30;101378.00;;;;4999504;28;20489;-80
2022/03/07 05:02:39;;;;;;;16.53;14.83;;;1.80;1.00;2.20;101380.00;;;;4997283;28;20860;-77
2022/03/07 05:05:09;;;;;;;16.37;14.77;;;1.80;1.00;2.20;101383.00;;;;4997610;28;20470;-78
2022/03/07 05:07:37;;;;;;;17.30;15.50;;;1.80;1.00;2.20;101387.00;;;;4997241;28;20463;-77
2022/03/07 05:10:07;;;;;;;16.07;14.47;;;1.70;1.00;2.10;101386.00;;;;4996363;28;20473;-78
2022/03/07 05:12:35;;;;;;;17.57;15.83;;;1.70;1.00;2.10;101340.00;;;;4997152;28;20830;-80
2022/03/07 05:15:06;;;;;;;15.83;14.23;;;1.70;1.00;2.10;101369.00;;;;5003200;28;20474;-77
2022/03/07 05:17:42;;;;;;;15.23;13.67;;;1.60;1.00;2.00;101383.00;;;;4995410;28;21425;-77
2022/03/07 05:20:12;;;;;;;17.00;15.20;;;1.60;1.00;1.80;101376.00;;;;4994703;28;20486;-78
2022/03/07 05:22:41;;;;;;;16.33;14.60;;;1.40;1.00;1.70;101362.00;;;;4990210;28;20907;-78
2022/03/07 05:25:11;;;;;;;16.83;15.13;;;1.60;1.00;1.60;101379.00;;;;4997081;28;20480;-76
2022/03/07 05:27:40;;;;;;;16.83;15.10;;;1.20;1.00;1.60;66603.00;;;;5012306;28;20457;-78
2022/03/07 05:30:15;;;;;;;15.30;13.90;;;1.20;1.00;1.50;101393.00;;;;4998824;28;20459;-78
2022/03/07 05:32:43;;;;;;;17.17;14.63;;;1.10;1.00;1.50;66577.00;;;;5006290;28;20476;-78
2022/03/07 05:35:12;;;;;;;15.50;13.87;;;1.00;1.00;1.40;101395.00;;;;5004789;28;20474;-78
2022/03/07 05:37:41;;;;;;;15.37;13.20;;;0.90;1.00;1.40;101384.00;;;;5000184;28;20451;-78
2022/03/07 05:40:12;;;;;;;13.30;11.90;;;0.90;1.00;1.20;101394.00;;;;5019652;28;20525;-79
2022/03/07 05:42:41;;;;;;;14.00;12.60;;;0.90;1.00;1.20;101378.00;;;;5014113;28;20453;-78
2022/03/07 05:45:13;;;;;;;13.57;12.23;;;0.80;1.00;1.30;101399.00;;;;5016317;28;20930;-78
2022/03/07 05:47:42;;;;;;;12.97;11.60;;;0.80;1.00;52.70;157162.00;;;;5006229;28;20760;-78
2022/03/07 05:50:13;;;;;;;20.67;12.63;;;0.80;1.00;1.30;101407.00;;;;5005365;28;20838;-77
2022/03/07 05:52:41;;;;;;;12.97;11.57;;;0.80;1.00;1.30;101417.00;;;;4999795;28;20449;-78
2022/03/07 05:55:10;;;;;;;12.23;11.10;;;0.80;1.00;1.30;101405.00;;;;4997531;28;20570;-78
2022/03/07 05:57:39;;;;;;;11.83;10.70;;;0.80;1.00;1.30;101404.00;;;;4996803;28;20568;-78
2022/03/07 06:00:12;;;;;;;12.10;11.00;;;0.90;1.00;1.40;101424.00;;;;4996605;28;20477;-78
2022/03/07 06:02:40;;;;;;;12.03;10.83;;;0.90;1.00;1.40;101404.00;;;;4995586;28;20963;-78
2022/03/07 06:05:10;;;;;;;12.13;10.73;;;1.00;1.00;1.50;101418.00;;;;5013615;28;20482;-78
2022/03/07 06:07:39;;;;;;;11.70;10.60;;;1.00;1.00;1.50;101419.00;;;;4994791;28;20549;-78
2022/03/07 06:10:08;;;;;;;11.53;9.67;;;1.20;1.00;1.60;101422.00;;;;5015609;28;20450;-78
2022/03/07 06:12:36;;;;;;;11.80;10.80;;;1.20;1.00;1.70;101417.00;;;;5009975;28;20457;-78
2022/03/07 06:15:06;;;;;;;11.10;10.00;;;1.30;1.00;1.80;101404.00;;;;5031280;28;20561;-79
2022/03/07 06:17:36;;;;;;;10.30;9.40;;;1.30;1.00;1.90;101422.00;;;;5019850;28;20477;-78
2022/03/07 06:20:06;;;;;;;11.87;9.50;;;1.40;1.00;2.10;101418.00;;;;5020080;28;20496;-80
2022/03/07 06:22:34;;;;;;;9.63;8.63;;;1.60;1.00;2.10;101434.00;;;;5014274;28;20450;-79
2022/03/07 06:25:03;;;;;;;10.57;9.57;;;1.60;1.00;2.20;101424.00;;;;5029027;28;20476;-77
2022/03/07 06:27:31;;;;;;;14.73;9.97;;;1.80;1.00;2.40;66773.00;;;;4992262;28;20443;-77
2022/03/07 06:29:59;;;;;;;13.53;9.07;;;1.90;1.00;2.60;101406.00;;;;4996986;28;20466;-79
2022/03/07 06:32:28;;;;;;;10.07;9.07;;;2.00;1.00;2.60;101421.00;;;;4990045;28;21396;-76
2022/03/07 06:34:57;;;;;;;10.57;9.53;;;2.50;1.00;2.60;101426.00;;;;4993546;28;20594;-76
2022/03/07 06:37:26;;;;;;;9.67;8.77;;;2.10;1.00;2.90;101421.00;;;;5003045;28;20468;-77
2022/03/07 06:39:54;;;;;;;11.07;9.80;;;2.30;1.00;2.90;101410.00;;;;4992353;28;20450;-77
2022/03/07 06:42:23;;;;;;;11.20;10.03;;;2.40;1.00;2.90;101422.00;;;;4996226;28;20527;-78
2022/03/07 06:44:51;;;;;;;10.70;9.60;;;2.50;1.00;2.90;101411.00;;;;4993243;28;20470;-77
2022/03/07 06:47:19;;;;;;;11.10;9.93;;;2.40;1.00;2.90;66907.00;;;;4993976;28;20812;-77
2022/03/07 06:49:51;;;;;;;12.10;10.90;;;2.50;1.00;3.00;101427.00;;;;4992083;28;20939;-76
2022/03/07 06:52:20;;;;;;;11.60;10.40;;;2.50;1.00;3.00;101445.00;;;;4991663;28;20465;-76
2022/03/07 06:54:49;;;;;;;11.13;10.03;;;2.50;1.00;3.20;101446.00;;;;4989801;28;20508;-76
2022/03/07 06:57:18;;;;;;;11.50;9.57;;;3.00;1.00;3.20;101422.00;;;;4994031;28;20461;-77
2022/03/07 06:59:46;;;;;;;10.27;9.30;;;2.70;1.00;3.40;101430.00;;;;4994902;28;20442;-78
2022/03/07 07:02:15;;;;;;;12.70;9.43;;;2.90;1.00;3.70;101428.00;;;;4998671;28;20556;-77
2022/03/07 07:04:44;;;;;;;12.50;10.07;;;3.10;1.00;3.70;101429.00;;;;5000179;28;20490;-76
2022/03/07 07:07:12;;;;;;;10.50;9.43;;;3.20;1.00;3.70;101435.00;;;;5013365;28;20462;-77
2022/03/07 07:09:42;;;;;;;12.83;9.03;;;3.30;1.00;3.80;101429.00;;;;4996312;28;20456;-77
2022/03/07 07:12:11;;;;;;;16.00;9.43;;;3.40;1.00;3.80;101436.00;;;;5019071;28;20437;-78
2022/03/07 07:14:39;;;;;;;14.20;9.90;;;3.40;1.00;3.70;101433.00;;;;5008078;28;20519;-76
2022/03/07 07:17:07;;;;;;;12.40;10.27;;;3.50;1.00;3.70;101430.00;;;;4999326;28;20473;-77
2022/03/07 07:19:36;;;;;;;14.97;10.20;;;3.30;1.00;3.80;101455.00;;;;4997613;28;20886;-77
2022/03/07 07:22:04;;;;;;;10.40;8.93;;;3.40;1.00;3.80;67094.00;;;;5000717;28;20473;-78
2022/03/07 07:24:33;;;;;;;12.03;9.90;;;3.40;1.00;3.90;101441.00;;;;5015800;28;20490;-77
2022/03/07 07:27:03;;;;;;;10.47;9.40;;;3.50;1.00;4.00;101441.00;;;;5001017;28;20471;-77
2022/03/07 07:29:31;;;;;;;14.30;9.83;;;3.60;1.00;4.10;101458.00;;;;5000365;28;20525;-78
2022/03/07 07:32:02;;;;;;;13.03;9.10;;;3.70;1.00;4.20;101469.00;;;;4999275;28;20465;-77
2022/03/07 07:34:30;;;;;;;15.13;10.17;;;3.80;1.00;4.20;101439.00;;;;5012815;28;20450;-78
2022/03/07 07:36:59;;;;;;;12.60;11.40;;;3.80;1.00;4.30;101452.00;;;;5001015;28;20473;-77
2022/03/07 07:39:38;;;;;;;11.10;9.90;;;3.90;1.00;4.40;101463.00;;;;4998592;28;20462;-77
2022/03/07 07:42:08;;;;;;;11.37;10.20;;;4.00;1.00;4.50;101448.00;;;;4996723;28;20476;-77
2022/03/07 07:44:40;;;;;;;14.60;10.77;;;4.10;1.00;4.60;101469.00;;;;4997505;28;20592;-78
2022/03/07 07:47:09;;;;;;;13.17;11.87;;;4.20;1.00;4.80;101461.00;;;;5015011;28;21062;-78
2022/03/07 07:49:37;;;;;;;19.73;10.60;;;4.40;1.00;4.70;101468.00;;;;4999578;28;20543;-77
2022/03/07 07:52:07;;;;;;;11.10;9.80;;;4.40;1.00;4.60;101462.00;;;;5000397;28;20912;-78
2022/03/07 07:54:36;;;;;;;11.37;9.23;;;4.30;1.00;4.70;101458.00;;;;5002506;28;20454;-75
2022/03/07 07:57:07;;;;;;;10.13;9.23;;;4.30;1.00;4.90;101461.00;;;;5018178;28;20455;-78
2022/03/07 07:59:37;;;;;;;11.30;9.67;;;4.50;1.00;5.10;101483.00;;;;5002292;28;20481;-76
2022/03/07 08:02:25;;;;;;;12.17;10.43;;;4.60;1.00;5.20;101478.00;;;;5000860;28;21317;-77
2022/03/07 08:04:54;;;;;;;14.90;9.13;;;4.80;1.00;5.20;101458.00;;;;5019739;28;20501;-78
2022/03/07 08:07:27;;;;;;;10.20;9.30;;;4.80;1.00;5.20;101482.00;;;;5027282;28;20532;-77
2022/03/07 08:09:55;;;;;;;11.13;9.80;;;4.80;1.00;5.50;101471.00;;;;5016998;28;20462;-78
2022/03/07 08:12:26;;;;;;;9.63;8.53;;;5.00;1.00;5.70;101485.00;;;;5017536;28;20446;-77
2022/03/07 08:14:56;;;;;;;10.80;9.60;;;5.20;1.00;5.50;101479.00;;;;5019571;28;20480;-76
2022/03/07 08:17:24;;;;;;;10.50;9.10;;;5.20;1.00;5.70;101481.00;;;;5003265;28;20451;-77
2022/03/07 08:19:52;;;;;;;10.57;8.80;;;5.30;1.00;5.60;101475.00;;;;4998850;28;20466;-76
2022/03/07 08:22:24;;;;;;;9.57;8.77;;;5.30;1.00;5.50;101462.00;;;;5000565;28;20652;-77
2022/03/07 08:24:52;;;;;;;12.27;10.07;;;5.20;1.00;5.60;101486.00;;;;5001719;28;20479;-78
2022/03/07 08:27:21;;;;;;;10.00;8.90;;;5.20;1.00;5.50;101493.00;;;;5016285;28;20469;-78
2022/03/07 08:29:49;;;;;;;10.07;9.07;;;5.10;1.00;5.50;101477.00;;;;5029470;28;21079;-78
2022/03/07 08:32:19;;;;;;;10.10;9.10;;;5.10;1.00;5.40;101490.00;;;;5011610;28;20552;-79
2022/03/07 08:34:47;;;;;;;14.20;12.03;;;5.00;1.00;5.50;101488.00;;;;5012392;28;20506;-78
2022/03/07 08:37:18;;;;;;;9.97;8.97;;;5.10;1.00;5.70;101487.00;;;;5013135;28;20473;-78
2022/03/07 08:39:47;;;;;;;9.10;8.20;;;4.70;1.00;6.00;101491.00;;;;5026321;28;20549;-78
2022/03/07 08:42:15;;;;;;;11.70;9.93;;;5.40;1.00;6.20;101491.00;;;;5006862;28;20467;-79
2022/03/07 08:44:44;;;;;;;11.43;8.80;;;5.60;1.00;6.20;101503.00;;;;5010884;28;20509;-79
2022/03/07 08:47:13;;;;;;;10.10;9.07;;;5.70;1.00;5.90;101500.00;;;;5012956;28;20457;-78
2022/03/07 08:49:43;;;;;;;10.60;8.33;;;5.50;1.00;5.90;101497.00;;;;4995158;28;20544;-78
2022/03/07 08:52:15;;;;;;;15.47;7.80;;;5.50;1.00;6.00;101485.00;;;;4998786;28;20461;-78
2022/03/07 08:54:43;;;;;;;9.20;8.20;;;5.50;1.00;6.40;101491.00;;;;5012705;28;20502;-77
2022/03/07 08:57:12;;;;;;;9.20;8.30;;;5.80;1.00;6.30;101485.00;;;;5022390;28;20447;-78
2022/03/07 08:59:41;;;;;;;9.73;8.73;;;5.90;1.00;6.20;101500.00;;;;5021032;28;20442;-80
2022/03/07 09:02:10;;;;;;;10.93;8.90;;;5.80;1.00;6.50;101485.00;;;;5020339;28;20462;-80
2022/03/07 09:04:45;;;;;;;8.57;7.60;;;6.00;1.00;6.70;101482.00;;;;5024645;28;20477;-79
2022/03/07 09:07:13;;;;;;;9.27;8.33;;;6.20;1.00;6.50;101491.00;;;;5024443;28;20525;-78
2022/03/07 09:09:42;;;;;;;8.17;7.27;;;6.10;1.00;6.70;101485.00;;;;4999488;28;20455;-78
2022/03/07 09:12:10;;;;;;;8.67;7.87;;;6.20;1.00;6.70;101476.00;;;;5002434;28;20517;-79
2022/03/07 09:14:39;;;;;;;8.60;7.87;;;6.20;1.00;6.80;101458.00;;;;4997458;28;20475;-79
2022/03/07 09:17:08;;;;;;;8.87;7.70;;;6.30;1.00;6.60;101474.00;;;;4999050;28;20459;-79
2022/03/07 09:19:36;;;;;;;11.10;7.80;;;6.10;1.00;6.70;101446.00;;;;5016335;28;20477;-79
2022/03/07 09:22:06;;;;;;;8.33;6.60;;;6.30;1.00;6.90;101474.00;;;;5001807;28;20466;-79
2022/03/07 09:24:34;;;;;;;10.57;9.43;;;6.80;1.00;7.10;101466.00;;;;4999466;28;20466;-79
2022/03/07 09:27:03;;;;;;;7.57;6.77;;;6.60;1.00;7.20;101483.00;;;;5007893;28;20463;-78
2022/03/07 09:29:32;;;;;;;7.83;7.13;;;6.70;1.00;7.10;101486.00;;;;5017490;28;20451;-78
2022/03/07 09:32:02;;;;;;;10.13;7.40;;;6.70;1.00;7.10;101483.00;;;;5017835;28;20548;-77
2022/03/07 09:34:30;;;;;;;8.30;7.50;;;6.70;1.00;7.20;101489.00;;;;5021997;28;20465;-78
2022/03/07 09:36:58;;;;;;;7.73;7.03;;;6.80;1.00;7.30;101486.00;;;;5021214;28;20481;-79
2022/03/07 09:39:28;;;;;;;8.23;7.43;;;6.90;1.00;7.20;101491.00;;;;5014545;28;20482;-80
2022/03/07 09:41:56;;;;;;;7.50;6.77;;;6.80;1.00;7.10;101494.00;;;;5034094;28;20526;-79
2022/03/07 09:44:27;;;;;;;7.63;6.90;;;6.70;1.00;6.80;101494.00;;;;5009341;28;20455;-78
2022/03/07 09:46:57;;;;;;;8.10;7.40;;;6.30;1.00;7.00;101497.00;;;;5006164;28;20904;-79
2022/03/07 09:49:26;;;;;;;7.10;6.60;;;6.50;1.00;7.00;101487.00;;;;5015051;28;20477;-78
2022/03/07 09:51:58;;;;;;;7.07;6.47;;;6.60;1.00;7.00;101486.00;;;;5021495;28;20494;-78
2022/03/07 09:54:28;;;;;;;6.47;5.87;;;6.50;1.00;7.10;101487.00;;;;5023183;28;20465;-78
2022/03/07 09:56:57;;;;;;;6.93;6.33;;;6.70;1.00;6.80;101493.00;;;;5016357;28;20483;-78
2022/03/07 09:59:26;;;;;;;7.07;6.40;;;6.50;1.00;6.70;101460.00;;;;5013493;28;20454;-79
2022/03/07 10:02:02;;;;;;;7.53;6.83;;;6.30;1.00;6.70;101462.00;;;;4994101;28;20453;-79
2022/03/07 10:04:32;;;;;;;7.47;6.87;;;6.20;1.00;6.50;101487.00;;;;4997239;28;20482;-79
2022/03/07 10:07:06;;;;;;;7.70;7.00;;;6.10;1.00;6.20;101489.00;;;;4998772;28;20465;-78
2022/03/07 10:09:36;;;;;;;8.20;7.03;;;5.90;1.00;6.20;101481.00;;;;5013602;28;20839;-78
2022/03/07 10:12:05;;;;;;;8.00;6.80;;;5.80;1.00;5.80;101475.00;;;;5012887;28;20830;-78
2022/03/07 10:14:41;;;;;;;8.00;6.50;;;5.60;1.00;5.90;101474.00;;;;4995049;28;20462;-79
2022/03/07 10:17:22;;;;;;;7.70;7.00;;;5.50;1.00;5.80;101460.00;;;;4996066;28;20490;-79
2022/03/07 10:19:51;;;;;;;8.63;7.80;;;5.50;1.00;5.90;101482.00;;;;5009888;28;20508;-79
2022/03/07 10:22:22;;;;;;;7.13;6.43;;;5.50;1.00;6.20;101469.00;;;;5010605;28;20554;-79
2022/03/07 10:25:01;;;;;;;7.60;6.50;;;5.70;1.00;6.20;101478.00;;;;4997352;28;20477;-78
2022/03/07 10:27:33;;;;;;;7.83;7.13;;;5.70;1.00;6.20;101490.00;;;;4996690;28;20809;-79
2022/03/07 10:30:02;;;;;;;7.60;6.40;;;5.70;1.00;6.30;101488.00;;;;5010308;28;20465;-79
2022/03/07 10:32:31;;;;;;;8.83;8.03;;;6.00;1.00;6.50;101474.00;;;;4997081;28;20550;-78
2022/03/07 10:34:59;;;;;;;7.30;6.60;;;5.90;1.00;6.50;101474.00;;;;5000058;28;20478;-79
2022/03/07 10:37:35;;;;;;;7.23;6.57;;;6.10;1.00;6.60;101486.00;;;;5006521;28;20463;-79
2022/03/07 10:40:11;;;;;;;8.50;7.70;;;6.10;1.00;6.60;101485.00;;;;4998635;28;20492;-79
2022/03/07 10:42:46;;;;;;;7.33;6.63;;;6.20;1.00;6.70;101477.00;;;;5001303;28;20474;-79
2022/03/07 10:45:15;;;;;;;8.20;7.40;;;6.30;1.00;7.00;101469.00;;;;4992379;28;20569;-79
2022/03/07 10:47:44;;;;;;;8.33;7.40;;;6.40;1.00;7.20;101470.00;;;;4994772;28;20477;-78
2022/03/07 10:50:12;;;;;;;7.87;7.17;;;6.60;1.00;7.40;101461.00;;;;5003131;28;20446;-79
2022/03/07 10:52:42;;;;;;;8.27;7.20;;;6.90;1.00;7.30;101449.00;;;;4999813;28;20460;-79
2022/03/07 10:55:15;;;;;;;6.93;6.23;;;6.90;1.00;7.10;101479.00;;;;5001269;28;20470;-79
2022/03/07 10:57:44;;;;;;;8.57;7.77;;;6.80;1.00;7.00;101472.00;;;;5004053;28;20466;-79
2022/03/07 11:00:17;;;;;;;8.23;7.43;;;6.60;1.00;6.90;101473.00;;;;4998489;28;20551;-79
2022/03/07 11:02:50;;;;;;;6.60;5.97;;;6.60;1.00;6.80;101480.00;;;;4997904;28;20482;-79
2022/03/07 11:05:19;;;;;;;7.97;6.87;;;6.50;1.00;6.90;101452.00;;;;4999157;28;21100;-79
2022/03/07 11:07:50;;;;;;;6.50;5.90;;;6.50;1.00;6.80;101477.00;;;;4999864;28;20459;-78
2022/03/07 11:10:20;;;;;;;9.13;7.40;;;6.40;1.00;6.80;101459.00;;;;5015886;28;20813;-79
2022/03/07 11:12:49;;;;;;;10.33;6.80;;;6.40;1.00;6.60;101472.00;;;;5008519;28;20458;-78